sensor_id;sensor_type;location;lat;lon;timestamp;pressure;altitude;pressure_sealevel;temperature;humidity
23172;BME280;11754;42.664;23.594;2023-02-11T00:00:21;97131.19;;;-4.03;56.15
23172;BME280;11754;42.664;23.594;2023-02-11T00:02:47;97132.03;;;-4.04;56.06
23172;BME280;11754;42.664;23.594;2023-02-11T00:05:12;97124.41;;;-4.07;55.97
23172;BME280;11754;42.664;23.594;2023-02-11T00:07:37;97121.91;;;-4.12;55.88
23172;BME280;11754;42.664;23.594;2023-02-11T00:10:04;97119.38;;;-4.13;55.80
23172;BME280;11754;42.664;23.594;2023-02-11T00:12:32;97113.53;;;-4.20;55.66
23172;BME280;11754;42.664;23.594;2023-02-11T00:14:58;97121.25;;;-4.20;56.17
23172;BME280;11754;42.664;23.594;2023-02-11T00:17:23;97117.97;;;-4.26;56.14
23172;BME280;11754;42.664;23.594;2023-02-11T00:19:50;97118.81;;;-4.26;56.49
23172;BME280;11754;42.664;23.594;2023-02-11T00:22:15;97128.34;;;-4.29;56.38
23172;BME280;11754;42.664;23.594;2023-02-11T00:24:41;97116.34;;;-4.30;57.00
23172;BME280;11754;42.664;23.594;2023-02-11T00:27:06;97125.81;;;-4.31;56.59
23172;BME280;11754;42.664;23.594;2023-02-11T00:29:31;97122.59;;;-4.39;56.95
23172;BME280;11754;42.664;23.594;2023-02-11T00:31:57;97114.88;;;-4.41;57.00
23172;BME280;11754;42.664;23.594;2023-02-11T00:34:23;97122.66;;;-4.42;56.87
23172;BME280;11754;42.664;23.594;2023-02-11T00:36:48;97126.91;;;-4.40;56.83
23172;BME280;11754;42.664;23.594;2023-02-11T00:39:14;97110.72;;;-4.46;57.08
23172;BME280;11754;42.664;23.594;2023-02-11T00:41:40;97129.41;;;-4.38;57.53
23172;BME280;11754;42.664;23.594;2023-02-11T00:44:05;97131.16;;;-4.40;57.35
23172;BME280;11754;42.664;23.594;2023-02-11T00:46:30;97124.47;;;-4.47;57.67
23172;BME280;11754;42.664;23.594;2023-02-11T00:48:57;97122.84;;;-4.51;57.73
23172;BME280;11754;42.664;23.594;2023-02-11T00:51:24;97113.53;;;-4.57;57.79
23172;BME280;11754;42.664;23.594;2023-02-11T00:53:49;97109.28;;;-4.60;57.63
23172;BME280;11754;42.664;23.594;2023-02-11T00:56:15;97107.63;;;-4.61;56.93
23172;BME280;11754;42.664;23.594;2023-02-11T00:58:40;97102.53;;;-4.64;57.43
23172;BME280;11754;42.664;23.594;2023-02-11T01:01:05;97107.97;;;-4.77;57.35
23172;BME280;11754;42.664;23.594;2023-02-11T01:03:32;97116.53;;;-4.75;57.48
23172;BME280;11754;42.664;23.594;2023-02-11T01:05:57;97108.13;;;-4.85;57.27
23172;BME280;11754;42.664;23.594;2023-02-11T01:08:23;97115.88;;;-4.85;57.74
23172;BME280;11754;42.664;23.594;2023-02-11T01:10:59;97099.81;;;-4.96;58.01
23172;BME280;11754;42.664;23.594;2023-02-11T01:13:26;97106.63;;;-4.95;58.10
23172;BME280;11754;42.664;23.594;2023-02-11T01:15:52;97108.53;;;-5.03;58.77
23172;BME280;11754;42.664;23.594;2023-02-11T01:18:18;97102.47;;;-5.01;58.39
23172;BME280;11754;42.664;23.594;2023-02-11T01:20:43;97100.03;;;-5.09;58.28
23172;BME280;11754;42.664;23.594;2023-02-11T01:23:09;97098.34;;;-5.10;58.61
23172;BME280;11754;42.664;23.594;2023-02-11T01:25:34;97103.63;;;-5.16;58.71
23172;BME280;11754;42.664;23.594;2023-02-11T01:28:00;97107.00;;;-5.14;58.54
23172;BME280;11754;42.664;23.594;2023-02-11T01:30:25;97105.38;;;-5.18;58.33
23172;BME280;11754;42.664;23.594;2023-02-11T01:32:50;97103.69;;;-5.19;58.49
23172;BME280;11754;42.664;23.594;2023-02-11T01:35:16;97102.81;;;-5.19;58.56
23172;BME280;11754;42.664;23.594;2023-02-11T01:37:41;97098.56;;;-5.19;58.33
23172;BME280;11754;42.664;23.594;2023-02-11T01:40:12;97101.03;;;-5.14;58.47
23172;BME280;11754;42.664;23.594;2023-02-11T01:42:38;97100.25;;;-5.18;58.27
23172;BME280;11754;42.664;23.594;2023-02-11T01:48:08;97103.75;;;-5.22;58.45
23172;BME280;11754;42.664;23.594;2023-02-11T01:50:35;97097.84;;;-5.27;58.16
23172;BME280;11754;42.664;23.594;2023-02-11T01:53:01;97100.34;;;-5.24;58.30
23172;BME280;11754;42.664;23.594;2023-02-11T01:55:47;97096.94;;;-5.23;57.83
23172;BME280;11754;42.664;23.594;2023-02-11T01:58:31;97102.13;;;-5.26;58.07
23172;BME280;11754;42.664;23.594;2023-02-11T02:01:01;97095.28;;;-5.27;57.80
23172;BME280;11754;42.664;23.594;2023-02-11T02:03:29;97102.97;;;-5.27;57.71
23172;BME280;11754;42.664;23.594;2023-02-11T02:06:11;97092.78;;;-5.30;57.64
23172;BME280;11754;42.664;23.594;2023-02-11T02:08:43;97080.16;;;-5.42;57.88
23172;BME280;11754;42.664;23.594;2023-02-11T02:11:11;97080.03;;;-5.36;57.60
23172;BME280;11754;42.664;23.594;2023-02-11T02:13:36;97094.56;;;-5.34;57.63
23172;BME280;11754;42.664;23.594;2023-02-11T02:16:04;97093.78;;;-5.37;57.51
23172;BME280;11754;42.664;23.594;2023-02-11T02:27:17;97093.25;;;-5.56;57.57
23172;BME280;11754;42.664;23.594;2023-02-11T02:35:26;97098.69;;;-5.71;58.70
23172;BME280;11754;42.664;23.594;2023-02-11T02:41:03;97096.97;;;-5.69;58.90
23172;BME280;11754;42.664;23.594;2023-02-11T02:43:31;97105.66;;;-5.78;59.14
23172;BME280;11754;42.664;23.594;2023-02-11T02:46:18;97097.03;;;-5.74;58.92
23172;BME280;11754;42.664;23.594;2023-02-11T02:48:44;97092.03;;;-5.82;59.28
23172;BME280;11754;42.664;23.594;2023-02-11T03:04:48;97098.09;;;-5.84;59.31
23172;BME280;11754;42.664;23.594;2023-02-11T03:07:36;97108.38;;;-5.84;59.19
23172;BME280;11754;42.664;23.594;2023-02-11T03:10:13;97097.25;;;-5.86;59.07
23172;BME280;11754;42.664;23.594;2023-02-11T03:12:41;97098.09;;;-5.84;59.17
23172;BME280;11754;42.664;23.594;2023-02-11T03:15:09;97102.44;;;-5.88;59.24
23172;BME280;11754;42.664;23.594;2023-02-11T03:17:38;97099.88;;;-5.89;59.48
23172;BME280;11754;42.664;23.594;2023-02-11T03:20:05;97095.56;;;-5.87;59.14
23172;BME280;11754;42.664;23.594;2023-02-11T03:22:39;97087.91;;;-5.90;58.96
23172;BME280;11754;42.664;23.594;2023-02-11T03:25:05;97092.25;;;-5.92;59.16
23172;BME280;11754;42.664;23.594;2023-02-11T03:27:41;97100.84;;;-5.93;59.04
23172;BME280;11754;42.664;23.594;2023-02-11T03:30:15;97108.59;;;-5.96;59.22
23172;BME280;11754;42.664;23.594;2023-02-11T03:32:50;97100.19;;;-6.05;59.41
23172;BME280;11754;42.664;23.594;2023-02-11T03:35:38;97100.34;;;-6.17;59.61
23172;BME280;11754;42.664;23.594;2023-02-11T03:38:11;97101.16;;;-6.13;59.76
23172;BME280;11754;42.664;23.594;2023-02-11T03:40:39;97107.22;;;-6.16;59.62
23172;BME280;11754;42.664;23.594;2023-02-11T03:43:37;97109.84;;;-6.19;59.84
23172;BME280;11754;42.664;23.594;2023-02-11T03:46:05;97107.31;;;-6.22;59.14
23172;BME280;11754;42.664;23.594;2023-02-11T03:48:41;97099.69;;;-6.28;59.26
23172;BME280;11754;42.664;23.594;2023-02-11T03:51:10;97100.56;;;-6.29;59.70
23172;BME280;11754;42.664;23.594;2023-02-11T03:53:38;97108.31;;;-6.32;59.66
23172;BME280;11754;42.664;23.594;2023-02-11T03:56:08;97095.56;;;-6.38;59.32
23172;BME280;11754;42.664;23.594;2023-02-11T03:58:35;97102.59;;;-6.48;59.51
23172;BME280;11754;42.664;23.594;2023-02-11T04:01:00;97105.94;;;-6.44;59.94
23172;BME280;11754;42.664;23.594;2023-02-11T04:03:27;97099.19;;;-6.48;59.80
23172;BME280;11754;42.664;23.594;2023-02-11T04:05:53;97090.69;;;-6.54;60.13
23172;BME280;11754;42.664;23.594;2023-02-11T04:08:19;97094.09;;;-6.51;60.34
23172;BME280;11754;42.664;23.594;2023-02-11T04:10:44;97102.56;;;-6.46;60.33
23172;BME280;11754;42.664;23.594;2023-02-11T04:13:09;97103.44;;;-6.47;60.21
23172;BME280;11754;42.664;23.594;2023-02-11T04:15:35;97089.75;;;-6.48;60.31
23172;BME280;11754;42.664;23.594;2023-02-11T04:18:00;97102.56;;;-6.46;60.26
23172;BME280;11754;42.664;23.594;2023-02-11T04:20:27;97109.41;;;-6.45;60.32
23172;BME280;11754;42.664;23.594;2023-02-11T04:22:52;97105.00;;;-6.39;60.11
23172;BME280;11754;42.664;23.594;2023-02-11T04:25:18;97107.50;;;-6.34;59.68
23172;BME280;11754;42.664;23.594;2023-02-11T04:27:43;97093.84;;;-6.36;59.32
23172;BME280;11754;42.664;23.594;2023-02-11T04:30:09;97099.00;;;-6.39;59.43
23172;BME280;11754;42.664;23.594;2023-02-11T04:32:35;97099.84;;;-6.39;58.94
23172;BME280;11754;42.664;23.594;2023-02-11T04:35:00;97099.84;;;-6.37;59.27
23172;BME280;11754;42.664;23.594;2023-02-11T04:37:26;97092.28;;;-6.46;58.86
23172;BME280;11754;42.664;23.594;2023-02-11T04:39:52;97095.78;;;-6.50;58.62
23172;BME280;11754;42.664;23.594;2023-02-11T04:42:17;97089.84;;;-6.54;58.56
23172;BME280;11754;42.664;23.594;2023-02-11T04:44:42;97089.03;;;-6.58;58.80
23172;BME280;11754;42.664;23.594;2023-02-11T04:47:08;97082.25;;;-6.62;58.85
23172;BME280;11754;42.664;23.594;2023-02-11T04:49:33;97077.22;;;-6.69;58.78
23172;BME280;11754;42.664;23.594;2023-02-11T04:51:59;97097.72;;;-6.68;58.86
23172;BME280;11754;42.664;23.594;2023-02-11T04:54:24;97090.09;;;-6.72;58.89
23172;BME280;11754;42.664;23.594;2023-02-11T04:56:49;97086.66;;;-6.71;58.77
23172;BME280;11754;42.664;23.594;2023-02-11T04:59:15;97096.13;;;-6.75;58.53
23172;BME280;11754;42.664;23.594;2023-02-11T05:01:41;97094.44;;;-6.76;58.93
23172;BME280;11754;42.664;23.594;2023-02-11T05:04:06;97089.34;;;-6.79;58.95
23172;BME280;11754;42.664;23.594;2023-02-11T05:06:32;97093.59;;;-6.78;59.58
23172;BME280;11754;42.664;23.594;2023-02-11T05:08:57;97088.38;;;-6.72;59.24
23172;BME280;11754;42.664;23.594;2023-02-11T05:11:24;97076.34;;;-6.67;59.04
23172;BME280;11754;42.664;23.594;2023-02-11T05:13:49;97082.41;;;-6.72;59.55
23172;BME280;11754;42.664;23.594;2023-02-11T05:16:15;97079.91;;;-6.77;59.22
23172;BME280;11754;42.664;23.594;2023-02-11T05:18:42;97075.63;;;-6.78;59.61
23172;BME280;11754;42.664;23.594;2023-02-11T05:21:10;97081.63;;;-6.78;59.58
23172;BME280;11754;42.664;23.594;2023-02-11T05:23:37;97077.34;;;-6.77;59.35
23172;BME280;11754;42.664;23.594;2023-02-11T05:26:03;97077.34;;;-6.77;59.42
23172;BME280;11754;42.664;23.594;2023-02-11T05:28:30;97080.72;;;-6.75;59.37
23172;BME280;11754;42.664;23.594;2023-02-11T05:30:56;97071.38;;;-6.78;59.49
23172;BME280;11754;42.664;23.594;2023-02-11T05:33:22;97077.41;;;-6.80;59.05
23172;BME280;11754;42.664;23.594;2023-02-11T05:35:47;97080.84;;;-6.81;59.05
23172;BME280;11754;42.664;23.594;2023-02-11T05:38:13;97079.03;;;-6.76;58.99
23172;BME280;11754;42.664;23.594;2023-02-11T05:40:38;97085.91;;;-6.78;58.82
23172;BME280;11754;42.664;23.594;2023-02-11T05:43:04;97084.25;;;-6.82;59.11
23172;BME280;11754;42.664;23.594;2023-02-11T05:45:29;97073.91;;;-6.76;58.99
23172;BME280;11754;42.664;23.594;2023-02-11T05:47:55;97089.31;;;-6.76;58.92
23172;BME280;11754;42.664;23.594;2023-02-11T05:50:21;97078.31;;;-6.86;59.27
23172;BME280;11754;42.664;23.594;2023-02-11T05:52:47;97083.28;;;-6.73;59.26
23172;BME280;11754;42.664;23.594;2023-02-11T05:55:13;97086.63;;;-6.67;59.17
23172;BME280;11754;42.664;23.594;2023-02-11T05:57:38;97078.97;;;-6.70;59.05
23172;BME280;11754;42.664;23.594;2023-02-11T06:00:05;97089.13;;;-6.64;59.75
23172;BME280;11754;42.664;23.594;2023-02-11T06:02:30;97090.72;;;-6.57;59.35
23172;BME280;11754;42.664;23.594;2023-02-11T06:04:56;97097.31;;;-6.40;59.33
23172;BME280;11754;42.664;23.594;2023-02-11T06:07:21;97094.63;;;-6.33;59.12
23172;BME280;11754;42.664;23.594;2023-02-11T06:09:46;97095.34;;;-6.23;58.88
23172;BME280;11754;42.664;23.594;2023-02-11T06:12:12;97089.19;;;-6.13;58.76
23172;BME280;11754;42.664;23.594;2023-02-11T06:14:37;97077.06;;;-6.06;58.99
23172;BME280;11754;42.664;23.594;2023-02-11T06:17:03;97087.00;;;-5.88;58.16
23172;BME280;11754;42.664;23.594;2023-02-11T06:19:28;97090.94;;;-5.70;57.96
23172;BME280;11754;42.664;23.594;2023-02-11T06:21:55;97097.00;;;-5.72;57.78
23172;BME280;11754;42.664;23.594;2023-02-11T06:24:24;97094.06;;;-5.52;57.56
23172;BME280;11754;42.664;23.594;2023-02-11T06:26:49;97088.69;;;-5.40;57.37
23172;BME280;11754;42.664;23.594;2023-02-11T06:29:15;97089.22;;;-5.24;56.41
23172;BME280;11754;42.664;23.594;2023-02-11T06:31:40;97082.41;;;-5.27;56.60
23172;BME280;11754;42.664;23.594;2023-02-11T06:34:07;97091.63;;;-5.17;56.36
23172;BME280;11754;42.664;23.594;2023-02-11T06:36:33;97097.50;;;-5.10;56.67
23172;BME280;11754;42.664;23.594;2023-02-11T06:38:59;97086.88;;;-4.93;56.21
23172;BME280;11754;42.664;23.594;2023-02-11T06:41:24;97106.06;;;-4.68;56.51
23172;BME280;11754;42.664;23.594;2023-02-11T06:43:51;97094.94;;;-4.70;56.87
23172;BME280;11754;42.664;23.594;2023-02-11T06:46:16;97101.25;;;-4.46;56.68
23172;BME280;11754;42.664;23.594;2023-02-11T06:48:42;97098.84;;;-4.16;55.85
23172;BME280;11754;42.664;23.594;2023-02-11T06:51:09;97099.47;;;-4.06;55.00
23172;BME280;11754;42.664;23.594;2023-02-11T06:53:37;97091.66;;;-4.03;54.90
23172;BME280;11754;42.664;23.594;2023-02-11T06:56:06;97105.78;;;-3.84;54.22
23172;BME280;11754;42.664;23.594;2023-02-11T06:58:32;97093.72;;;-3.82;54.76
23172;BME280;11754;42.664;23.594;2023-02-11T07:00:57;97082.66;;;-3.54;54.94
23172;BME280;11754;42.664;23.594;2023-02-11T07:03:23;97084.09;;;-3.13;54.12
23172;BME280;11754;42.664;23.594;2023-02-11T07:05:48;97068.75;;;-2.88;53.44
23172;BME280;11754;42.664;23.594;2023-02-11T07:08:14;97071.66;;;-2.71;53.14
23172;BME280;11754;42.664;23.594;2023-02-11T07:10:39;97082.66;;;-2.36;52.57
23172;BME280;11754;42.664;23.594;2023-02-11T07:13:05;97076.16;;;-2.21;52.70
23172;BME280;11754;42.664;23.594;2023-02-11T07:15:30;97077.88;;;-1.95;52.55
23172;BME280;11754;42.664;23.594;2023-02-11T07:17:56;97088.50;;;-1.78;51.78
23172;BME280;11754;42.664;23.594;2023-02-11T07:20:21;97083.91;;;-1.70;51.59
23172;BME280;11754;42.664;23.594;2023-02-11T07:22:47;97081.19;;;-1.40;50.95
23172;BME280;11754;42.664;23.594;2023-02-11T07:25:12;97078.28;;;-1.07;50.25
23172;BME280;11754;42.664;23.594;2023-02-11T07:27:37;97079.75;;;-1.00;49.68
23172;BME280;11754;42.664;23.594;2023-02-11T07:30:03;97074.22;;;-0.91;50.32
23172;BME280;11754;42.664;23.594;2023-02-11T07:32:29;97067.50;;;-0.73;49.47
23172;BME280;11754;42.664;23.594;2023-02-11T07:34:54;97070.72;;;-0.44;49.57
23172;BME280;11754;42.664;23.594;2023-02-11T07:37:20;97068.00;;;-0.41;49.33
23172;BME280;11754;42.664;23.594;2023-02-11T07:39:46;97070.47;;;-0.16;48.91
23172;BME280;11754;42.664;23.594;2023-02-11T07:42:11;97060.00;;;0.28;46.53
23172;BME280;11754;42.664;23.594;2023-02-11T07:44:36;97051.66;;;0.62;46.55
23172;BME280;11754;42.664;23.594;2023-02-11T07:47:02;97053.31;;;0.63;46.01
23172;BME280;11754;42.664;23.594;2023-02-11T07:49:28;97058.53;;;0.82;46.02
23172;BME280;11754;42.664;23.594;2023-02-11T07:51:53;97048.88;;;1.04;45.82
23172;BME280;11754;42.664;23.594;2023-02-11T07:54:19;97051.28;;;1.28;45.44
23172;BME280;11754;42.664;23.594;2023-02-11T07:56:44;97047.19;;;1.41;45.01
23172;BME280;11754;42.664;23.594;2023-02-11T07:59:10;97044.84;;;1.90;44.65
23172;BME280;11754;42.664;23.594;2023-02-11T08:01:35;97046.88;;;2.70;42.74
23172;BME280;11754;42.664;23.594;2023-02-11T08:04:02;97051.88;;;3.24;42.26
23172;BME280;11754;42.664;23.594;2023-02-11T08:06:31;97035.97;;;3.76;40.45
23172;BME280;11754;42.664;23.594;2023-02-11T08:08:56;97042.41;;;3.54;39.83
23172;BME280;11754;42.664;23.594;2023-02-11T08:11:24;97053.41;;;3.59;41.10
23172;BME280;11754;42.664;23.594;2023-02-11T08:13:51;97046.16;;;4.10;39.94
23172;BME280;11754;42.664;23.594;2023-02-11T08:18:48;97022.25;;;5.05;38.10
23172;BME280;11754;42.664;23.594;2023-02-11T08:21:14;97023.56;;;5.54;37.32
23172;BME280;11754;42.664;23.594;2023-02-11T08:23:41;97033.03;;;6.11;36.57
23172;BME280;11754;42.664;23.594;2023-02-11T08:26:10;97024.31;;;6.63;35.39
23172;BME280;11754;42.664;23.594;2023-02-11T08:28:37;97026.41;;;7.09;34.67
23172;BME280;11754;42.664;23.594;2023-02-11T08:31:14;97019.16;;;7.62;33.58
23172;BME280;11754;42.664;23.594;2023-02-11T08:33:40;97016.34;;;8.00;33.02
23172;BME280;11754;42.664;23.594;2023-02-11T08:36:19;97017.69;;;6.44;33.95
23172;BME280;11754;42.664;23.594;2023-02-11T08:38:45;97020.13;;;6.08;35.49
23172;BME280;11754;42.664;23.594;2023-02-11T08:41:11;97025.97;;;7.02;34.56
23172;BME280;11754;42.664;23.594;2023-02-11T08:43:40;97014.91;;;7.72;33.36
23172;BME280;11754;42.664;23.594;2023-02-11T08:46:06;97018.13;;;8.48;32.36
23172;BME280;11754;42.664;23.594;2023-02-11T08:48:32;97014.72;;;8.10;31.89
23172;BME280;11754;42.664;23.594;2023-02-11T08:50:57;97013.50;;;8.03;31.88
23172;BME280;11754;42.664;23.594;2023-02-11T08:53:23;97002.94;;;8.16;32.76
23172;BME280;11754;42.664;23.594;2023-02-11T08:55:53;97007.44;;;8.96;31.13
23172;BME280;11754;42.664;23.594;2023-02-11T08:58:20;97018.88;;;8.72;31.33
23172;BME280;11754;42.664;23.594;2023-02-11T09:00:46;96990.91;;;8.82;31.25
23172;BME280;11754;42.664;23.594;2023-02-11T09:03:13;96999.66;;;9.94;30.14
23172;BME280;11754;42.664;23.594;2023-02-11T09:05:43;97004.53;;;11.54;27.96
23172;BME280;11754;42.664;23.594;2023-02-11T09:08:09;97002.63;;;11.66;27.72
23172;BME280;11754;42.664;23.594;2023-02-11T09:10:35;96990.44;;;12.62;26.14
23172;BME280;11754;42.664;23.594;2023-02-11T09:13:01;96976.03;;;13.21;25.85
23172;BME280;11754;42.664;23.594;2023-02-11T09:15:26;96988.97;;;14.25;24.53
23172;BME280;11754;42.664;23.594;2023-02-11T09:17:51;96983.66;;;14.07;23.37
23172;BME280;11754;42.664;23.594;2023-02-11T09:20:17;96979.47;;;15.79;22.15
23172;BME280;11754;42.664;23.594;2023-02-11T09:22:43;96978.63;;;16.78;20.46
23172;BME280;11754;42.664;23.594;2023-02-11T09:25:08;96955.97;;;17.77;19.56
23172;BME280;11754;42.664;23.594;2023-02-11T09:27:34;96973.63;;;17.86;18.81
23172;BME280;11754;42.664;23.594;2023-02-11T09:29:59;96967.94;;;16.53;20.44
23172;BME280;11754;42.664;23.594;2023-02-11T09:32:24;96955.91;;;18.39;18.87
23172;BME280;11754;42.664;23.594;2023-02-11T09:34:50;96947.84;;;21.03;16.25
23172;BME280;11754;42.664;23.594;2023-02-11T09:37:15;96940.13;;;23.37;14.77
23172;BME280;11754;42.664;23.594;2023-02-11T09:39:41;96931.03;;;24.91;13.39
23172;BME280;11754;42.664;23.594;2023-02-11T09:42:13;96936.84;;;23.35;14.08
23172;BME280;11754;42.664;23.594;2023-02-11T09:44:45;96920.47;;;25.33;13.39
23172;BME280;11754;42.664;23.594;2023-02-11T09:49:49;96912.25;;;28.75;11.18
23172;BME280;11754;42.664;23.594;2023-02-11T09:55:21;96900.09;;;29.72;9.93
23172;BME280;11754;42.664;23.594;2023-02-11T09:57:47;96897.16;;;30.01;10.10
23172;BME280;11754;42.664;23.594;2023-02-11T10:03:11;96875.75;;;33.23;8.43
23172;BME280;11754;42.664;23.594;2023-02-11T10:08:39;96866.09;;;36.67;7.24
23172;BME280;11754;42.664;23.594;2023-02-11T10:24:51;96822.81;;;39.62;4.96
23172;BME280;11754;42.664;23.594;2023-02-11T10:27:30;96804.31;;;39.23;5.61
23172;BME280;11754;42.664;23.594;2023-02-11T10:29:59;96801.00;;;40.44;5.24
23172;BME280;11754;42.664;23.594;2023-02-11T10:32:46;96798.28;;;41.47;5.02
23172;BME280;11754;42.664;23.594;2023-02-11T10:35:16;96782.47;;;42.19;4.67
23172;BME280;11754;42.664;23.594;2023-02-11T10:37:43;96777.28;;;42.84;4.33
23172;BME280;11754;42.664;23.594;2023-02-11T10:40:28;96768.34;;;43.24;4.42
23172;BME280;11754;42.664;23.594;2023-02-11T10:42:57;96765.28;;;43.78;3.65
23172;BME280;11754;42.664;23.594;2023-02-11T10:45:29;96749.00;;;43.64;4.13
23172;BME280;11754;42.664;23.594;2023-02-11T10:47:56;96752.81;;;42.98;4.09
23172;BME280;11754;42.664;23.594;2023-02-11T10:50:26;96743.09;;;41.92;4.40
23172;BME280;11754;42.664;23.594;2023-02-11T10:52:52;96729.91;;;43.01;4.43
23172;BME280;11754;42.664;23.594;2023-02-11T10:55:23;96731.59;;;43.92;4.06
23172;BME280;11754;42.664;23.594;2023-02-11T10:57:59;96722.06;;;44.33;3.83
23172;BME280;11754;42.664;23.594;2023-02-11T11:00:37;96721.13;;;45.04;3.85
23172;BME280;11754;42.664;23.594;2023-02-11T11:03:16;96711.47;;;44.10;3.82
23172;BME280;11754;42.664;23.594;2023-02-11T11:05:54;96708.63;;;42.81;4.16
23172;BME280;11754;42.664;23.594;2023-02-11T11:08:20;96710.22;;;43.67;4.17
23172;BME280;11754;42.664;23.594;2023-02-11T11:10:48;96713.19;;;44.43;3.95
23172;BME280;11754;42.664;23.594;2023-02-11T11:13:38;96712.47;;;44.46;3.64
23172;BME280;11754;42.664;23.594;2023-02-11T11:16:08;96708.63;;;43.42;3.79
23172;BME280;11754;42.664;23.594;2023-02-11T11:18:40;96712.28;;;44.39;3.83
23172;BME280;11754;42.664;23.594;2023-02-11T11:21:16;96711.56;;;44.70;3.81
23172;BME280;11754;42.664;23.594;2023-02-11T11:23:51;96705.31;;;45.56;3.53
23172;BME280;11754;42.664;23.594;2023-02-11T11:26:18;96699.53;;;46.23;3.19
23172;BME280;11754;42.664;23.594;2023-02-11T11:28:53;96683.94;;;46.61;3.17
23172;BME280;11754;42.664;23.594;2023-02-11T11:33:53;96689.25;;;46.92;2.83
23172;BME280;11754;42.664;23.594;2023-02-11T11:36:21;96679.31;;;47.18;2.83
23172;BME280;11754;42.664;23.594;2023-02-11T11:38:59;96682.44;;;47.70;2.98
23172;BME280;11754;42.664;23.594;2023-02-11T11:41:32;96678.56;;;45.90;3.22
23172;BME280;11754;42.664;23.594;2023-02-11T11:46:45;96669.38;;;46.71;3.05
23172;BME280;11754;42.664;23.594;2023-02-11T11:52:18;96662.47;;;46.65;2.83
23172;BME280;11754;42.664;23.594;2023-02-11T11:54:50;96660.53;;;45.14;3.49
23172;BME280;11754;42.664;23.594;2023-02-11T11:57:24;96652.50;;;45.28;3.10
23172;BME280;11754;42.664;23.594;2023-02-11T11:59:50;96648.69;;;43.41;3.69
23172;BME280;11754;42.664;23.594;2023-02-11T12:07:53;96632.63;;;45.65;3.04
23172;BME280;11754;42.664;23.594;2023-02-11T12:13:07;96628.56;;;43.44;3.75
23172;BME280;11754;42.664;23.594;2023-02-11T12:18:35;96612.66;;;43.16;3.69
23172;BME280;11754;42.664;23.594;2023-02-11T12:21:23;96612.00;;;44.48;3.33
23172;BME280;11754;42.664;23.594;2023-02-11T12:27:27;96598.44;;;44.62;3.06
23172;BME280;11754;42.664;23.594;2023-02-11T12:30:31;96589.44;;;44.05;3.39
23172;BME280;11754;42.664;23.594;2023-02-11T12:33:05;96596.94;;;42.84;3.53
23172;BME280;11754;42.664;23.594;2023-02-11T12:41:58;96590.41;;;43.97;3.27
23172;BME280;11754;42.664;23.594;2023-02-11T12:49:44;96561.75;;;46.05;2.70
23172;BME280;11754;42.664;23.594;2023-02-11T12:57:56;96562.00;;;43.76;2.86
23172;BME280;11754;42.664;23.594;2023-02-11T13:00:41;96556.78;;;42.08;3.74
23172;BME280;11754;42.664;23.594;2023-02-11T13:03:19;96560.78;;;43.33;3.57
23172;BME280;11754;42.664;23.594;2023-02-11T13:06:13;96559.22;;;44.20;2.92
23172;BME280;11754;42.664;23.594;2023-02-11T13:08:47;96558.00;;;44.33;3.07
23172;BME280;11754;42.664;23.594;2023-02-11T13:11:27;96548.63;;;42.23;3.66
23172;BME280;11754;42.664;23.594;2023-02-11T13:14:14;96548.16;;;41.43;4.01
23172;BME280;11754;42.664;23.594;2023-02-11T13:16:46;96550.44;;;43.17;3.45
23172;BME280;11754;42.664;23.594;2023-02-11T13:22:15;96539.69;;;43.44;3.20
23172;BME280;11754;42.664;23.594;2023-02-11T13:24:46;96529.09;;;41.20;3.80
23172;BME280;11754;42.664;23.594;2023-02-11T13:27:40;96533.34;;;42.17;3.71
23172;BME280;11754;42.664;23.594;2023-02-11T13:30:24;96532.28;;;43.48;3.32
23172;BME280;11754;42.664;23.594;2023-02-11T13:37:54;96514.59;;;44.79;3.12
23172;BME280;11754;42.664;23.594;2023-02-11T13:40:24;96514.19;;;44.62;2.93
23172;BME280;11754;42.664;23.594;2023-02-11T13:42:59;96520.59;;;41.25;3.41
23172;BME280;11754;42.664;23.594;2023-02-11T13:48:01;96525.97;;;38.96;4.26
23172;BME280;11754;42.664;23.594;2023-02-11T13:50:29;96518.31;;;40.18;3.94
23172;BME280;11754;42.664;23.594;2023-02-11T13:52:59;96513.72;;;41.11;3.88
23172;BME280;11754;42.664;23.594;2023-02-11T13:55:26;96511.22;;;40.08;3.80
23172;BME280;11754;42.664;23.594;2023-02-11T14:00:52;96507.16;;;38.98;4.06
23172;BME280;11754;42.664;23.594;2023-02-11T14:03:26;96505.72;;;38.34;4.53
23172;BME280;11754;42.664;23.594;2023-02-11T14:06:13;96500.38;;;37.22;4.72
23172;BME280;11754;42.664;23.594;2023-02-11T14:12:32;96503.63;;;33.88;5.37
23172;BME280;11754;42.664;23.594;2023-02-11T14:15:17;96494.72;;;35.58;5.37
23172;BME280;11754;42.664;23.594;2023-02-11T14:17:43;96493.19;;;36.12;5.05
23172;BME280;11754;42.664;23.594;2023-02-11T14:20:34;96494.28;;;37.02;4.95
23172;BME280;11754;42.664;23.594;2023-02-11T14:23:00;96493.78;;;37.45;5.05
23172;BME280;11754;42.664;23.594;2023-02-11T14:25:26;96478.28;;;37.27;5.04
23172;BME280;11754;42.664;23.594;2023-02-11T14:27:54;96479.38;;;37.03;4.83
23172;BME280;11754;42.664;23.594;2023-02-11T14:30:35;96488.22;;;36.78;4.76
23172;BME280;11754;42.664;23.594;2023-02-11T14:33:31;96477.63;;;36.07;5.15
23172;BME280;11754;42.664;23.594;2023-02-11T14:41:42;96489.25;;;35.72;5.45
23172;BME280;11754;42.664;23.594;2023-02-11T14:44:17;96489.34;;;35.34;5.35
23172;BME280;11754;42.664;23.594;2023-02-11T14:46:47;96487.03;;;35.08;5.38
23172;BME280;11754;42.664;23.594;2023-02-11T14:49:23;96488.28;;;34.78;5.69
23172;BME280;11754;42.664;23.594;2023-02-11T14:51:53;96486.19;;;34.08;5.75
23172;BME280;11754;42.664;23.594;2023-02-11T14:54:22;96491.88;;;33.88;6.05
23172;BME280;11754;42.664;23.594;2023-02-11T14:57:12;96489.97;;;33.25;6.35
23172;BME280;11754;42.664;23.594;2023-02-11T14:59:38;96494.09;;;32.39;6.53
23172;BME280;11754;42.664;23.594;2023-02-11T15:02:19;96493.25;;;31.32;7.01
23172;BME280;11754;42.664;23.594;2023-02-11T15:04:45;96487.63;;;30.35;7.58
23172;BME280;11754;42.664;23.594;2023-02-11T15:07:12;96490.25;;;30.15;7.59
23172;BME280;11754;42.664;23.594;2023-02-11T15:09:44;96494.75;;;29.89;7.76